CHH7520 ZJSY-ZGDY
Flight info
| Callsign | CHH7520 |
|---|---|
| Flight time | 1h 45m |
| Altitude | 29100 |
| Route | PORAP2Q PORAP W222 NUMKU W223 AGTEL W71 LH/K0876S1040 R339 BHY W159 IVPUB/K0865S1070 W120 ENKUS R343 LLC/K0865S1100 W138 DYG |
| Aircraft | A320/M-SDE3FGHIRWY/LB1 |
Departure
| Time | 2026-04-23 05:57 |
|---|---|
| Airport | Sanya Phoenix International Airport (ZJSY) |
Arrival
| Time | 2026-04-23 07:42 |
|---|---|
| Airport | Zhangjiajie Hehua International Airport (ZGDY) |
| Time | Latitude | Longitude | Altitude | Speed | Heading |
|---|---|---|---|---|---|
| 2026-04-23 05:32 | 18.30759 | 109.40457 | 111 ft | 0 kts | 353° |
| 2026-04-23 05:45 | 18.30753 | 109.40458 | 84 ft | 8 kts | 353° |
| 2026-04-23 05:45 | 18.30702 | 109.40468 | 86 ft | 2 kts | 332° |
| 2026-04-23 05:45 | 18.30695 | 109.40472 | 86 ft | 2 kts | 304° |
| 2026-04-23 05:45 | 18.30690 | 109.40482 | 87 ft | 2 kts | 269° |
| 2026-04-23 05:46 | 18.30690 | 109.40494 | 86 ft | 2 kts | 262° |
| 2026-04-23 05:46 | 18.30692 | 109.40505 | 87 ft | 0 kts | 261° |
| 2026-04-23 05:48 | 18.30688 | 109.40480 | 86 ft | 7 kts | 261° |
| 2026-04-23 05:49 | 18.30678 | 109.40402 | 84 ft | 14 kts | 262° |
| 2026-04-23 05:49 | 18.30663 | 109.40277 | 84 ft | 19 kts | 263° |
| 2026-04-23 05:49 | 18.30610 | 109.40232 | 86 ft | 9 kts | 179° |
| 2026-04-23 05:49 | 18.30550 | 109.40239 | 85 ft | 8 kts | 173° |
| 2026-04-23 05:50 | 18.30497 | 109.40247 | 85 ft | 7 kts | 173° |
| 2026-04-23 05:50 | 18.30454 | 109.40252 | 85 ft | 5 kts | 173° |
| 2026-04-23 05:50 | 18.30440 | 109.40243 | 86 ft | 1 kts | 257° |
| 2026-04-23 05:50 | 18.30438 | 109.40239 | 86 ft | 0 kts | 243° |
| 2026-04-23 05:51 | 18.30414 | 109.40211 | 86 ft | 11 kts | 228° |
| 2026-04-23 05:51 | 18.30391 | 109.40109 | 84 ft | 15 kts | 262° |
| 2026-04-23 05:51 | 18.30379 | 109.40008 | 84 ft | 13 kts | 263° |
| 2026-04-23 05:51 | 18.30368 | 109.39921 | 84 ft | 11 kts | 262° |
| 2026-04-23 05:52 | 18.30359 | 109.39849 | 87 ft | 9 kts | 262° |
| 2026-04-23 05:52 | 18.30351 | 109.39789 | 88 ft | 7 kts | 262° |
| 2026-04-23 05:52 | 18.30344 | 109.39741 | 89 ft | 6 kts | 262° |
| 2026-04-23 05:52 | 18.30339 | 109.39705 | 84 ft | 4 kts | 262° |
| 2026-04-23 05:53 | 18.30336 | 109.39678 | 84 ft | 3 kts | 262° |
| 2026-04-23 05:53 | 18.30333 | 109.39661 | 84 ft | 2 kts | 262° |
| 2026-04-23 05:53 | 18.30332 | 109.39652 | 84 ft | 1 kts | 261° |
| 2026-04-23 05:53 | 18.30332 | 109.39651 | 84 ft | 0 kts | 261° |
| 2026-04-23 05:54 | 18.30312 | 109.39626 | 85 ft | 10 kts | 208° |
| 2026-04-23 05:54 | 18.30242 | 109.39627 | 88 ft | 10 kts | 174° |
| 2026-04-23 05:54 | 18.30185 | 109.39632 | 89 ft | 0 kts | 174° |
| 2026-04-23 05:55 | 18.30165 | 109.39634 | 90 ft | 7 kts | 174° |
| 2026-04-23 05:55 | 18.30096 | 109.39658 | 90 ft | 9 kts | 127° |
| 2026-04-23 05:56 | 18.30099 | 109.39757 | 86 ft | 22 kts | 81° |
| 2026-04-23 05:56 | 18.30147 | 109.40122 | 86 ft | 84 kts | 82° |
| 2026-04-23 05:56 | 18.30255 | 109.40950 | 82 ft | 141 kts | 82° |
| 2026-04-23 05:56 | 18.30417 | 109.42133 | 125 ft | 180 kts | 86° |
| 2026-04-23 05:57 | 18.30532 | 109.43431 | 761 ft | 179 kts | 86° |
| 2026-04-23 05:57 | 18.30701 | 109.44725 | 1480 ft | 178 kts | 86° |
| 2026-04-23 05:57 | 18.30887 | 109.46016 | 2184 ft | 189 kts | 85° |
| 2026-04-23 05:57 | 18.31093 | 109.47473 | 2677 ft | 211 kts | 85° |
| 2026-04-23 05:58 | 18.31297 | 109.49078 | 3087 ft | 231 kts | 90° |
| 2026-04-23 05:58 | 18.30858 | 109.50722 | 3547 ft | 242 kts | 130° |
| 2026-04-23 05:58 | 18.29491 | 109.51721 | 4263 ft | 245 kts | 168° |
| 2026-04-23 05:58 | 18.27813 | 109.51631 | 4975 ft | 247 kts | 206° |
| 2026-04-23 05:59 | 18.26528 | 109.50473 | 5708 ft | 247 kts | 243° |
| 2026-04-23 05:59 | 18.26187 | 109.48728 | 6476 ft | 249 kts | 278° |
| 2026-04-23 05:59 | 18.26655 | 109.46997 | 7158 ft | 253 kts | 291° |
| 2026-04-23 05:59 | 18.27390 | 109.45289 | 7824 ft | 258 kts | 297° |
| 2026-04-23 06:00 | 18.28575 | 109.43860 | 8456 ft | 267 kts | 323° |
| 2026-04-23 06:00 | 18.30253 | 109.42975 | 9127 ft | 275 kts | 342° |
| 2026-04-23 06:00 | 18.32186 | 109.42739 | 9635 ft | 291 kts | 6° |
| 2026-04-23 06:00 | 18.34093 | 109.43538 | 9968 ft | 305 kts | 40° |
| 2026-04-23 06:01 | 18.35638 | 109.45142 | 10310 ft | 322 kts | 48° |
| 2026-04-23 06:01 | 18.37184 | 109.46963 | 10436 ft | 345 kts | 50° |
| 2026-04-23 06:01 | 18.38769 | 109.48912 | 10558 ft | 365 kts | 50° |
| 2026-04-23 06:01 | 18.40454 | 109.51006 | 10688 ft | 384 kts | 50° |
| 2026-04-23 06:02 | 18.42211 | 109.53180 | 11086 ft | 393 kts | 50° |
| 2026-04-23 06:02 | 18.44000 | 109.55371 | 11615 ft | 397 kts | 49° |
| 2026-04-23 06:02 | 18.45822 | 109.57579 | 12194 ft | 400 kts | 49° |
| 2026-04-23 06:02 | 18.47692 | 109.59769 | 12765 ft | 404 kts | 44° |
| 2026-04-23 06:03 | 18.49874 | 109.61630 | 13344 ft | 406 kts | 31° |
| 2026-04-23 06:03 | 18.52371 | 109.63015 | 13887 ft | 407 kts | 22° |
| 2026-04-23 06:03 | 18.54931 | 109.64224 | 14380 ft | 410 kts | 22° |
| 2026-04-23 06:03 | 18.57539 | 109.65464 | 14858 ft | 413 kts | 22° |
| 2026-04-23 06:04 | 18.60164 | 109.66718 | 15326 ft | 415 kts | 22° |
| 2026-04-23 06:04 | 18.62803 | 109.67983 | 15774 ft | 419 kts | 22° |
| 2026-04-23 06:04 | 18.65463 | 109.69262 | 16218 ft | 421 kts | 22° |
| 2026-04-23 06:04 | 18.68139 | 109.70549 | 16661 ft | 424 kts | 22° |
| 2026-04-23 06:05 | 18.70836 | 109.71845 | 17099 ft | 427 kts | 22° |
| 2026-04-23 06:05 | 18.73545 | 109.73150 | 17499 ft | 430 kts | 22° |
| 2026-04-23 06:05 | 18.76276 | 109.74463 | 17909 ft | 432 kts | 22° |
| 2026-04-23 06:05 | 18.78983 | 109.75762 | 18291 ft | 435 kts | 22° |
| 2026-04-23 06:06 | 18.81746 | 109.77089 | 18636 ft | 437 kts | 22° |
| 2026-04-23 06:06 | 18.84521 | 109.78421 | 18968 ft | 440 kts | 22° |
| 2026-04-23 06:06 | 18.87319 | 109.79763 | 19301 ft | 443 kts | 22° |
| 2026-04-23 06:06 | 18.90133 | 109.81115 | 19652 ft | 445 kts | 22° |
| 2026-04-23 06:07 | 18.92956 | 109.82470 | 20000 ft | 447 kts | 22° |
| 2026-04-23 06:07 | 18.95796 | 109.83834 | 20319 ft | 450 kts | 22° |
| 2026-04-23 06:07 | 18.98654 | 109.85209 | 20650 ft | 452 kts | 22° |
| 2026-04-23 06:07 | 19.01490 | 109.86574 | 20977 ft | 455 kts | 22° |
| 2026-04-23 06:08 | 19.04370 | 109.87961 | 21286 ft | 457 kts | 22° |
| 2026-04-23 06:08 | 19.07274 | 109.89359 | 21604 ft | 459 kts | 22° |
| 2026-04-23 06:08 | 19.10186 | 109.90761 | 21911 ft | 462 kts | 22° |
| 2026-04-23 06:08 | 19.13121 | 109.92173 | 22216 ft | 464 kts | 22° |
| 2026-04-23 06:09 | 19.16065 | 109.93590 | 22518 ft | 466 kts | 22° |
| 2026-04-23 06:09 | 19.19028 | 109.95017 | 22813 ft | 469 kts | 21° |
| 2026-04-23 06:09 | 19.21999 | 109.96450 | 23097 ft | 471 kts | 21° |
| 2026-04-23 06:09 | 19.24944 | 109.97875 | 23370 ft | 473 kts | 21° |
| 2026-04-23 06:10 | 19.27949 | 109.99311 | 23614 ft | 475 kts | 21° |
| 2026-04-23 06:10 | 19.30977 | 110.00726 | 23839 ft | 477 kts | 20° |
| 2026-04-23 06:10 | 19.34016 | 110.02132 | 24088 ft | 478 kts | 21° |
| 2026-04-23 06:10 | 19.37065 | 110.03567 | 24334 ft | 480 kts | 21° |
| 2026-04-23 06:11 | 19.40108 | 110.05025 | 24575 ft | 481 kts | 21° |
| 2026-04-23 06:11 | 19.43156 | 110.06503 | 24808 ft | 483 kts | 21° |
| 2026-04-23 06:11 | 19.46217 | 110.07992 | 25027 ft | 485 kts | 21° |
| 2026-04-23 06:11 | 19.49285 | 110.09485 | 25251 ft | 486 kts | 21° |
| 2026-04-23 06:12 | 19.52323 | 110.10962 | 25473 ft | 487 kts | 21° |
| 2026-04-23 06:12 | 19.55404 | 110.12458 | 25690 ft | 489 kts | 21° |
| 2026-04-23 06:12 | 19.61610 | 110.15460 | 26135 ft | 491 kts | 21° |
| 2026-04-23 06:13 | 19.64725 | 110.16963 | 26348 ft | 493 kts | 21° |
| 2026-04-23 06:13 | 19.67847 | 110.18470 | 26577 ft | 494 kts | 21° |
| 2026-04-23 06:13 | 19.70801 | 110.19899 | 26765 ft | 495 kts | 21° |
| 2026-04-23 06:13 | 19.73941 | 110.21420 | 27007 ft | 496 kts | 21° |
| 2026-04-23 06:14 | 19.77075 | 110.22942 | 27318 ft | 495 kts | 21° |
| 2026-04-23 06:14 | 19.80154 | 110.24438 | 27626 ft | 494 kts | 21° |
| 2026-04-23 06:14 | 19.83280 | 110.25956 | 27931 ft | 493 kts | 21° |
| 2026-04-23 06:14 | 19.86400 | 110.27469 | 28244 ft | 493 kts | 21° |
| 2026-04-23 06:15 | 19.89512 | 110.28980 | 28555 ft | 492 kts | 21° |
| 2026-04-23 06:15 | 19.92624 | 110.30492 | 28840 ft | 491 kts | 21° |
| 2026-04-23 06:15 | 19.98885 | 110.33539 | 28902 ft | 499 kts | 21° |
| 2026-04-23 06:16 | 20.05259 | 110.36324 | 28923 ft | 497 kts | 11° |
| 2026-04-23 06:16 | 20.12033 | 110.37114 | 28917 ft | 486 kts | 353° |
| 2026-04-23 06:17 | 20.18644 | 110.35956 | 28918 ft | 481 kts | 345° |
| 2026-04-23 06:17 | 20.25225 | 110.34571 | 28926 ft | 482 kts | 345° |
| 2026-04-23 06:18 | 20.31759 | 110.33199 | 28934 ft | 482 kts | 345° |
| 2026-04-23 06:18 | 20.38329 | 110.31807 | 28939 ft | 481 kts | 345° |
| 2026-04-23 06:19 | 20.44890 | 110.30418 | 28948 ft | 481 kts | 345° |
| 2026-04-23 06:19 | 20.51526 | 110.29469 | 28950 ft | 486 kts | 356° |
| 2026-04-23 06:20 | 20.58258 | 110.29885 | 28953 ft | 488 kts | 360° |
| 2026-04-23 06:20 | 20.65036 | 110.30337 | 28951 ft | 488 kts | 359° |
| 2026-04-23 06:21 | 20.71809 | 110.30770 | 28956 ft | 487 kts | 359° |
| 2026-04-23 06:21 | 20.78568 | 110.31200 | 28964 ft | 486 kts | 359° |
| 2026-04-23 06:22 | 20.85310 | 110.31642 | 28962 ft | 486 kts | 359° |
| 2026-04-23 06:22 | 20.92003 | 110.32085 | 28972 ft | 485 kts | 359° |
| 2026-04-23 06:23 | 20.98732 | 110.32528 | 28968 ft | 484 kts | 359° |
| 2026-04-23 06:23 | 21.05443 | 110.32833 | 28967 ft | 478 kts | 352° |
| 2026-04-23 06:24 | 21.08688 | 110.32231 | 28958 ft | 470 kts | 339° |
| 2026-04-23 06:24 | 21.11688 | 110.30927 | 28958 ft | 464 kts | 328° |
| 2026-04-23 06:24 | 21.14318 | 110.29053 | 28955 ft | 458 kts | 317° |
| 2026-04-23 06:24 | 21.16559 | 110.26650 | 28949 ft | 454 kts | 306° |
| 2026-04-23 06:25 | 21.19788 | 110.20890 | 28940 ft | 452 kts | 297° |
| 2026-04-23 06:25 | 21.22774 | 110.14959 | 28944 ft | 452 kts | 297° |
| 2026-04-23 06:26 | 21.25756 | 110.09016 | 28945 ft | 453 kts | 297° |
| 2026-04-23 06:26 | 21.28720 | 110.03109 | 28950 ft | 453 kts | 297° |
| 2026-04-23 06:27 | 21.31713 | 109.97163 | 28958 ft | 453 kts | 297° |
| 2026-04-23 06:27 | 21.34700 | 109.91227 | 28957 ft | 453 kts | 297° |
| 2026-04-23 06:28 | 21.37679 | 109.85273 | 28960 ft | 453 kts | 296° |
| 2026-04-23 06:28 | 21.40632 | 109.79356 | 28963 ft | 452 kts | 296° |
| 2026-04-23 06:29 | 21.43602 | 109.73406 | 28968 ft | 452 kts | 296° |
| 2026-04-23 06:29 | 21.46571 | 109.67462 | 28974 ft | 452 kts | 296° |
| 2026-04-23 06:30 | 21.49544 | 109.61517 | 28980 ft | 451 kts | 296° |
| 2026-04-23 06:30 | 21.52508 | 109.55574 | 28982 ft | 451 kts | 296° |
| 2026-04-23 06:31 | 21.55456 | 109.49691 | 28985 ft | 451 kts | 299° |
| 2026-04-23 06:31 | 21.57358 | 109.47001 | 28986 ft | 455 kts | 310° |
| 2026-04-23 06:31 | 21.59785 | 109.44787 | 28983 ft | 461 kts | 322° |
| 2026-04-23 06:32 | 21.62638 | 109.43176 | 28983 ft | 469 kts | 334° |
| 2026-04-23 06:32 | 21.65808 | 109.42251 | 28980 ft | 477 kts | 346° |
| 2026-04-23 06:32 | 21.72420 | 109.41385 | 28973 ft | 479 kts | 348° |
| 2026-04-23 06:33 | 21.79040 | 109.40542 | 28977 ft | 479 kts | 348° |
| 2026-04-23 06:33 | 21.85625 | 109.39693 | 28975 ft | 480 kts | 348° |
| 2026-04-23 06:34 | 21.92258 | 109.38826 | 28978 ft | 481 kts | 347° |
| 2026-04-23 06:34 | 21.98898 | 109.37959 | 28979 ft | 481 kts | 347° |
| 2026-04-23 06:35 | 22.05554 | 109.37095 | 28979 ft | 482 kts | 347° |
| 2026-04-23 06:35 | 22.12176 | 109.36232 | 28987 ft | 483 kts | 347° |
| 2026-04-23 06:36 | 22.18846 | 109.35369 | 29000 ft | 483 kts | 347° |
| 2026-04-23 06:36 | 22.25525 | 109.34516 | 29001 ft | 485 kts | 349° |
| 2026-04-23 06:37 | 22.32346 | 109.34997 | 29007 ft | 499 kts | 4° |
| 2026-04-23 06:37 | 22.39138 | 109.36338 | 29007 ft | 500 kts | 4° |
| 2026-04-23 06:38 | 22.45980 | 109.37681 | 29005 ft | 500 kts | 4° |
| 2026-04-23 06:38 | 22.52830 | 109.39025 | 29015 ft | 500 kts | 4° |
| 2026-04-23 06:39 | 22.59683 | 109.40371 | 29020 ft | 501 kts | 4° |
| 2026-04-23 06:39 | 22.66544 | 109.41724 | 29018 ft | 501 kts | 4° |
| 2026-04-23 06:40 | 22.73360 | 109.43069 | 29017 ft | 501 kts | 4° |
| 2026-04-23 06:40 | 22.80227 | 109.44430 | 29015 ft | 502 kts | 4° |
| 2026-04-23 06:41 | 22.87101 | 109.45796 | 29011 ft | 502 kts | 4° |
| 2026-04-23 06:41 | 22.93977 | 109.47155 | 29016 ft | 503 kts | 4° |
| 2026-04-23 06:42 | 23.00818 | 109.48500 | 29017 ft | 503 kts | 4° |
| 2026-04-23 06:42 | 23.07711 | 109.49868 | 29017 ft | 503 kts | 4° |
| 2026-04-23 06:43 | 23.14600 | 109.51244 | 29019 ft | 504 kts | 3° |
| 2026-04-23 06:43 | 23.21483 | 109.52614 | 29008 ft | 502 kts | 3° |
| 2026-04-23 06:44 | 23.28325 | 109.53976 | 29014 ft | 504 kts | 3° |
| 2026-04-23 06:44 | 23.35219 | 109.55347 | 29009 ft | 504 kts | 3° |
| 2026-04-23 06:45 | 23.42122 | 109.56720 | 29012 ft | 505 kts | 3° |
| 2026-04-23 06:45 | 23.49034 | 109.58101 | 29014 ft | 505 kts | 3° |
| 2026-04-23 06:46 | 23.55909 | 109.59477 | 29008 ft | 506 kts | 3° |
| 2026-04-23 06:46 | 23.62837 | 109.60866 | 29006 ft | 506 kts | 3° |
| 2026-04-23 06:47 | 23.69774 | 109.62250 | 29008 ft | 507 kts | 3° |
| 2026-04-23 06:47 | 23.76716 | 109.63643 | 29009 ft | 508 kts | 3° |
| 2026-04-23 06:48 | 23.83671 | 109.65044 | 29014 ft | 508 kts | 3° |
| 2026-04-23 06:48 | 23.90585 | 109.66434 | 29010 ft | 509 kts | 2° |
| 2026-04-23 06:49 | 23.97551 | 109.67831 | 29016 ft | 509 kts | 2° |
| 2026-04-23 06:49 | 24.04526 | 109.69237 | 29008 ft | 510 kts | 2° |
| 2026-04-23 06:50 | 24.11499 | 109.70645 | 29017 ft | 510 kts | 2° |
| 2026-04-23 06:50 | 24.18486 | 109.72051 | 29014 ft | 511 kts | 2° |
| 2026-04-23 06:51 | 24.25429 | 109.73452 | 29006 ft | 511 kts | 2° |
| 2026-04-23 06:51 | 24.32424 | 109.74870 | 29008 ft | 511 kts | 2° |
| 2026-04-23 06:52 | 24.39426 | 109.76284 | 29014 ft | 512 kts | 2° |
| 2026-04-23 06:52 | 24.46440 | 109.77698 | 29018 ft | 513 kts | 2° |
| 2026-04-23 06:53 | 24.53409 | 109.79108 | 29022 ft | 513 kts | 2° |
| 2026-04-23 06:53 | 24.60436 | 109.80540 | 29025 ft | 514 kts | 2° |
| 2026-04-23 06:54 | 24.67421 | 109.82475 | 29025 ft | 529 kts | 14° |
| 2026-04-23 06:54 | 24.70753 | 109.84283 | 29021 ft | 540 kts | 24° |
| 2026-04-23 06:54 | 24.73904 | 109.86570 | 29027 ft | 544 kts | 27° |
| 2026-04-23 06:55 | 24.80139 | 109.91197 | 29029 ft | 544 kts | 27° |
| 2026-04-23 06:55 | 24.86421 | 109.95850 | 29032 ft | 545 kts | 27° |
| 2026-04-23 06:56 | 24.92709 | 110.00523 | 29032 ft | 546 kts | 27° |
| 2026-04-23 06:56 | 24.99005 | 110.05212 | 29034 ft | 546 kts | 28° |
| 2026-04-23 06:57 | 25.05308 | 110.09902 | 29043 ft | 547 kts | 27° |
| 2026-04-23 06:57 | 25.11577 | 110.14572 | 29046 ft | 548 kts | 27° |
| 2026-04-23 06:58 | 25.17892 | 110.19291 | 29046 ft | 549 kts | 27° |
| 2026-04-23 06:58 | 25.24226 | 110.24021 | 29047 ft | 550 kts | 27° |
| 2026-04-23 06:59 | 25.30536 | 110.28702 | 29041 ft | 550 kts | 27° |
| 2026-04-23 06:59 | 25.36900 | 110.33421 | 29049 ft | 551 kts | 27° |
| 2026-04-23 07:00 | 25.43263 | 110.38155 | 29054 ft | 552 kts | 27° |
| 2026-04-23 07:00 | 25.49648 | 110.42885 | 29057 ft | 552 kts | 27° |
| 2026-04-23 07:01 | 25.56054 | 110.47595 | 29054 ft | 553 kts | 26° |
| 2026-04-23 07:01 | 25.62473 | 110.52157 | 29058 ft | 551 kts | 25° |
| 2026-04-23 07:02 | 25.69008 | 110.56607 | 29066 ft | 551 kts | 24° |
| 2026-04-23 07:02 | 25.75546 | 110.61077 | 29060 ft | 552 kts | 25° |
| 2026-04-23 07:03 | 25.82045 | 110.65521 | 29058 ft | 552 kts | 24° |
| 2026-04-23 07:03 | 25.88611 | 110.69955 | 29057 ft | 553 kts | 24° |
| 2026-04-23 07:04 | 25.95190 | 110.74389 | 29080 ft | 554 kts | 24° |
| 2026-04-23 07:04 | 26.01776 | 110.78844 | 29087 ft | 555 kts | 24° |
| 2026-04-23 07:05 | 26.08358 | 110.83327 | 29068 ft | 554 kts | 24° |
| 2026-04-23 07:05 | 26.14898 | 110.87774 | 29080 ft | 555 kts | 24° |
| 2026-04-23 07:06 | 26.21491 | 110.92239 | 29077 ft | 555 kts | 24° |
| 2026-04-23 07:06 | 26.28093 | 110.96712 | 29077 ft | 555 kts | 24° |
| 2026-04-23 07:07 | 26.34707 | 111.01202 | 29086 ft | 558 kts | 24° |
| 2026-04-23 07:07 | 26.41282 | 111.05677 | 29084 ft | 556 kts | 24° |
| 2026-04-23 07:08 | 26.47886 | 111.10186 | 29079 ft | 557 kts | 24° |
| 2026-04-23 07:08 | 26.54493 | 111.14696 | 29073 ft | 556 kts | 23° |
| 2026-04-23 07:09 | 26.61082 | 111.19235 | 29071 ft | 557 kts | 24° |
| 2026-04-23 07:09 | 26.67592 | 111.23968 | 29081 ft | 560 kts | 26° |
| 2026-04-23 07:10 | 26.74019 | 111.28785 | 29079 ft | 559 kts | 26° |
| 2026-04-23 07:10 | 26.80494 | 111.33603 | 29076 ft | 559 kts | 25° |
| 2026-04-23 07:11 | 26.86997 | 111.38351 | 29073 ft | 557 kts | 25° |
| 2026-04-23 07:12 | 26.96789 | 111.45335 | 29072 ft | 554 kts | 22° |
| 2026-04-23 07:12 | 27.03400 | 111.49614 | 29073 ft | 552 kts | 21° |
| 2026-04-23 07:13 | 27.10075 | 111.53868 | 29078 ft | 552 kts | 21° |
| 2026-04-23 07:13 | 27.16721 | 111.58221 | 29078 ft | 553 kts | 22° |
| 2026-04-23 07:14 | 27.23270 | 111.62667 | 29093 ft | 554 kts | 23° |
| 2026-04-23 07:14 | 27.29817 | 111.67260 | 29093 ft | 554 kts | 24° |
| 2026-04-23 07:15 | 27.36354 | 111.71844 | 29107 ft | 554 kts | 23° |
| 2026-04-23 07:15 | 27.42910 | 111.76379 | 29110 ft | 553 kts | 23° |
| 2026-04-23 07:16 | 27.49455 | 111.80895 | 29106 ft | 551 kts | 23° |
| 2026-04-23 07:16 | 27.55939 | 111.85392 | 29110 ft | 550 kts | 23° |
| 2026-04-23 07:17 | 27.62453 | 111.89927 | 29106 ft | 550 kts | 23° |
| 2026-04-23 07:17 | 27.68952 | 111.94461 | 29109 ft | 549 kts | 23° |
| 2026-04-23 07:18 | 27.75439 | 111.98984 | 29103 ft | 548 kts | 23° |
| 2026-04-23 07:18 | 27.81930 | 112.03512 | 29105 ft | 548 kts | 23° |
| 2026-04-23 07:19 | 27.88359 | 112.08004 | 29102 ft | 547 kts | 23° |
| 2026-04-23 07:19 | 27.94823 | 112.12539 | 29103 ft | 546 kts | 23° |
| 2026-04-23 07:20 | 28.01029 | 112.17593 | 29099 ft | 557 kts | 33° |
| 2026-04-23 07:20 | 28.04171 | 112.20014 | 29097 ft | 536 kts | 15° |
| 2026-04-23 07:20 | 28.07620 | 112.21228 | 29091 ft | 506 kts | 356° |
| 2026-04-23 07:20 | 28.11003 | 112.21157 | 29086 ft | 472 kts | 336° |
| 2026-04-23 07:21 | 28.13943 | 112.19902 | 29059 ft | 438 kts | 317° |
| 2026-04-23 07:21 | 28.16097 | 112.17724 | 29061 ft | 409 kts | 297° |
| 2026-04-23 07:21 | 28.17292 | 112.14919 | 29057 ft | 390 kts | 280° |
| 2026-04-23 07:22 | 28.18609 | 112.08960 | 29058 ft | 391 kts | 279° |
| 2026-04-23 07:22 | 28.19918 | 112.02973 | 29063 ft | 392 kts | 279° |
| 2026-04-23 07:23 | 28.21230 | 111.96964 | 29071 ft | 393 kts | 279° |
| 2026-04-23 07:23 | 28.22215 | 111.94049 | 29074 ft | 404 kts | 292° |
| 2026-04-23 07:23 | 28.23706 | 111.91380 | 29077 ft | 407 kts | 295° |
| 2026-04-23 07:24 | 28.26798 | 111.85999 | 29081 ft | 407 kts | 295° |
| 2026-04-23 07:24 | 28.29893 | 111.80606 | 29082 ft | 408 kts | 295° |
| 2026-04-23 07:25 | 28.32982 | 111.75205 | 29083 ft | 408 kts | 295° |
| 2026-04-23 07:25 | 28.36048 | 111.69841 | 29094 ft | 407 kts | 295° |
| 2026-04-23 07:25 | 28.37591 | 111.67133 | 28651 ft | 409 kts | 295° |
| 2026-04-23 07:26 | 28.39133 | 111.64429 | 28474 ft | 408 kts | 296° |
| 2026-04-23 07:26 | 28.42234 | 111.58989 | 28178 ft | 412 kts | 296° |
| 2026-04-23 07:26 | 28.43792 | 111.56256 | 27929 ft | 415 kts | 296° |
| 2026-04-23 07:27 | 28.45366 | 111.53490 | 27673 ft | 416 kts | 296° |
| 2026-04-23 07:27 | 28.46917 | 111.50757 | 27421 ft | 419 kts | 296° |
| 2026-04-23 07:27 | 28.48503 | 111.47961 | 27170 ft | 421 kts | 297° |
| 2026-04-23 07:27 | 28.50095 | 111.45157 | 26920 ft | 423 kts | 297° |
| 2026-04-23 07:28 | 28.51698 | 111.42331 | 26088 ft | 427 kts | 297° |
| 2026-04-23 07:28 | 28.53315 | 111.39477 | 25016 ft | 432 kts | 298° |
| 2026-04-23 07:28 | 28.54952 | 111.36584 | 23965 ft | 439 kts | 299° |
| 2026-04-23 07:28 | 28.56609 | 111.33654 | 22805 ft | 441 kts | 300° |
| 2026-04-23 07:29 | 28.58275 | 111.30712 | 21603 ft | 444 kts | 300° |
| 2026-04-23 07:29 | 28.59939 | 111.27784 | 20979 ft | 435 kts | 301° |
| 2026-04-23 07:29 | 28.61546 | 111.24956 | 20333 ft | 428 kts | 301° |
| 2026-04-23 07:29 | 28.63149 | 111.22127 | 19623 ft | 423 kts | 301° |
| 2026-04-23 07:30 | 28.64728 | 111.19325 | 18911 ft | 419 kts | 301° |
| 2026-04-23 07:30 | 28.66299 | 111.16540 | 18191 ft | 416 kts | 302° |
| 2026-04-23 07:30 | 28.67902 | 111.13810 | 17411 ft | 413 kts | 303° |
| 2026-04-23 07:30 | 28.69536 | 111.11137 | 16660 ft | 410 kts | 304° |
| 2026-04-23 07:31 | 28.71185 | 111.08495 | 15940 ft | 407 kts | 304° |
| 2026-04-23 07:31 | 28.72819 | 111.05883 | 15254 ft | 404 kts | 304° |
| 2026-04-23 07:31 | 28.74434 | 111.03288 | 14570 ft | 400 kts | 304° |
| 2026-04-23 07:31 | 28.75998 | 111.00728 | 13912 ft | 397 kts | 303° |
| 2026-04-23 07:32 | 28.77516 | 110.98107 | 13161 ft | 395 kts | 302° |
| 2026-04-23 07:32 | 28.78981 | 110.95471 | 12782 ft | 395 kts | 302° |
| 2026-04-23 07:32 | 28.80437 | 110.92808 | 12656 ft | 397 kts | 302° |
| 2026-04-23 07:32 | 28.81896 | 110.90136 | 12477 ft | 397 kts | 302° |
| 2026-04-23 07:33 | 28.83361 | 110.87472 | 12291 ft | 396 kts | 302° |
| 2026-04-23 07:33 | 28.84838 | 110.84818 | 12111 ft | 395 kts | 303° |
| 2026-04-23 07:33 | 28.86673 | 110.82509 | 11924 ft | 395 kts | 323° |
| 2026-04-23 07:33 | 28.89118 | 110.81196 | 11560 ft | 397 kts | 344° |
| 2026-04-23 07:34 | 28.91871 | 110.80877 | 10720 ft | 399 kts | 0° |
| 2026-04-23 07:34 | 28.94619 | 110.81206 | 10027 ft | 396 kts | 9° |
| 2026-04-23 07:34 | 28.97306 | 110.81857 | 9303 ft | 392 kts | 12° |
| 2026-04-23 07:34 | 28.99924 | 110.82592 | 8854 ft | 384 kts | 13° |
| 2026-04-23 07:35 | 29.02525 | 110.83275 | 8749 ft | 383 kts | 11° |
| 2026-04-23 07:35 | 29.05142 | 110.83865 | 8771 ft | 384 kts | 9° |
| 2026-04-23 07:35 | 29.07773 | 110.84366 | 8768 ft | 384 kts | 8° |
| 2026-04-23 07:35 | 29.10427 | 110.84410 | 8767 ft | 382 kts | 348° |
| 2026-04-23 07:36 | 29.12824 | 110.83253 | 8770 ft | 367 kts | 324° |
| 2026-04-23 07:36 | 29.14434 | 110.81177 | 8766 ft | 347 kts | 299° |
| 2026-04-23 07:36 | 29.15259 | 110.78669 | 8606 ft | 333 kts | 286° |
| 2026-04-23 07:36 | 29.15730 | 110.76038 | 7715 ft | 342 kts | 279° |
| 2026-04-23 07:37 | 29.16045 | 110.73341 | 6833 ft | 339 kts | 278° |
| 2026-04-23 07:37 | 29.16136 | 110.71052 | 6075 ft | 334 kts | 264° |
| 2026-04-23 07:37 | 29.15630 | 110.68437 | 5174 ft | 328 kts | 256° |
| 2026-04-23 07:37 | 29.15073 | 110.65920 | 4347 ft | 326 kts | 256° |
| 2026-04-23 07:38 | 29.14546 | 110.63521 | 3993 ft | 298 kts | 256° |
| 2026-04-23 07:38 | 29.14081 | 110.61413 | 3626 ft | 248 kts | 256° |
| 2026-04-23 07:38 | 29.13696 | 110.59672 | 3294 ft | 206 kts | 255° |
| 2026-04-23 07:38 | 29.13368 | 110.58194 | 3030 ft | 181 kts | 255° |
| 2026-04-23 07:39 | 29.13074 | 110.56866 | 2780 ft | 165 kts | 256° |
| 2026-04-23 07:39 | 29.12803 | 110.55645 | 2556 ft | 154 kts | 255° |
| 2026-04-23 07:39 | 29.12543 | 110.54473 | 2348 ft | 150 kts | 255° |
| 2026-04-23 07:39 | 29.12289 | 110.53327 | 2135 ft | 148 kts | 255° |
| 2026-04-23 07:40 | 29.12036 | 110.52189 | 1921 ft | 147 kts | 255° |
| 2026-04-23 07:40 | 29.11788 | 110.51074 | 1720 ft | 147 kts | 255° |
| 2026-04-23 07:40 | 29.11538 | 110.49948 | 1516 ft | 146 kts | 255° |
| 2026-04-23 07:40 | 29.11289 | 110.48825 | 1317 ft | 145 kts | 255° |
| 2026-04-23 07:41 | 29.11042 | 110.47702 | 1073 ft | 144 kts | 256° |
| 2026-04-23 07:41 | 29.10807 | 110.46589 | 907 ft | 144 kts | 256° |
| 2026-04-23 07:41 | 29.10562 | 110.45478 | 713 ft | 142 kts | 255° |
| 2026-04-23 07:41 | 29.10323 | 110.44498 | 698 ft | 102 kts | 254° |
| 2026-04-23 07:42 | 29.10223 | 110.44048 | 713 ft | 15 kts | 258° |
| 2026-04-23 07:42 | 29.10213 | 110.43996 | 713 ft | 13 kts | 257° |
| 2026-04-23 07:42 | 29.10189 | 110.43841 | 716 ft | 25 kts | 269° |
| 2026-04-23 07:42 | 29.10216 | 110.43647 | 727 ft | 25 kts | 284° |
| 2026-04-23 07:43 | 29.10280 | 110.43600 | 726 ft | 9 kts | 18° |
| 2026-04-23 07:43 | 29.10308 | 110.43654 | 726 ft | 8 kts | 71° |
| 2026-04-23 07:43 | 29.10322 | 110.43715 | 725 ft | 8 kts | 76° |
| 2026-04-23 07:43 | 29.10344 | 110.43812 | 712 ft | 21 kts | 75° |
| 2026-04-23 07:44 | 29.10387 | 110.44012 | 705 ft | 30 kts | 76° |
| 2026-04-23 07:44 | 29.10431 | 110.44206 | 702 ft | 25 kts | 75° |
| 2026-04-23 07:44 | 29.10450 | 110.44280 | 703 ft | 2 kts | 48° |
| 2026-04-23 07:44 | 29.10490 | 110.44275 | 705 ft | 6 kts | 346° |
| 2026-04-23 07:45 | 29.10532 | 110.44286 | 699 ft | 6 kts | 1° |
| 2026-04-23 07:45 | 29.10566 | 110.44274 | 707 ft | 4 kts | 330° |
| 2026-04-23 07:45 | 29.10586 | 110.44258 | 705 ft | 3 kts | 325° |
| 2026-04-23 07:45 | 29.10598 | 110.44249 | 706 ft | 1 kts | 326° |
| 2026-04-23 07:46 | 29.10601 | 110.44246 | 707 ft | 0 kts | 325° |
| 2026-04-23 07:46 | 29.10604 | 110.44244 | 704 ft | 0 kts | 325° |